Time;durP1;ratioP1;P1;durP2;ratioP2;P2;SDS_P1;SDS_P2;PMS_P1;PMS_P2;Temp;Humidity;BMP_temperature;BMP_pressure;BME280_temperature;BME280_humidity;BME280_pressure;Samples;Min_cycle;Max_cycle;Signal;HPM_P1;HPM_P2
2023/05/31 00:01:17;;;;;;;0.10;0.10;;;;;;;;;;5064841;28;20243;-71
2023/05/31 00:03:43;;;;;;;0.10;0.10;;;;;;;;;;5073680;28;20437;-71
2023/05/31 00:06:10;;;;;;;0.10;0.10;;;;;;;;;;5064481;28;20246;-72
2023/05/31 00:08:36;;;;;;;0.10;0.10;;;;;;;;;;5074020;28;20263;-71
2023/05/31 00:11:03;;;;;;;0.08;0.08;;;;;;;;;;5063464;28;20270;-71
2023/05/31 00:13:29;;;;;;;0.10;0.10;;;;;;;;;;5074967;28;20275;-71
2023/05/31 00:15:57;;;;;;;0.10;0.10;;;;;;;;;;5062218;28;20243;-72
2023/05/31 00:18:23;;;;;;;0.10;0.10;;;;;;;;;;5075661;28;20443;-71
2023/05/31 00:20:50;;;;;;;0.00;0.00;;;;;;;;;;5061609;28;20252;-71
2023/05/31 00:23:16;;;;;;;0.10;0.10;;;;;;;;;;5076472;28;20398;-71
2023/05/31 00:25:43;;;;;;;0.08;0.08;;;;;;;;;;5060547;28;20255;-71
2023/05/31 00:28:09;;;;;;;0.10;0.10;;;;;;;;;;5076948;28;20271;-71
2023/05/31 00:30:36;;;;;;;0.00;0.00;;;;;;;;;;5059536;28;20239;-71
2023/05/31 00:33:05;;;;;;;0.32;0.32;;;;;;;;;;5077738;28;20234;-71
2023/05/31 00:35:31;;;;;;;0.10;0.10;;;;;;;;;;5058835;28;20249;-71
2023/05/31 00:37:58;;;;;;;0.10;0.10;;;;;;;;;;5078347;28;20199;-71
2023/05/31 00:40:24;;;;;;;0.10;0.10;;;;;;;;;;5057702;28;20509;-71
2023/05/31 00:42:50;;;;;;;0.00;0.00;;;;;;;;;;5079402;28;20199;-71
2023/05/31 00:45:17;;;;;;;0.10;0.10;;;;;;;;;;5056950;28;20238;-71
2023/05/31 00:47:43;;;;;;;0.10;0.10;;;;;;;;;;5079964;28;20200;-71
2023/05/31 00:50:11;;;;;;;0.00;0.00;;;;;;;;;;5055784;28;20204;-72
2023/05/31 00:52:38;;;;;;;0.10;0.10;;;;;;;;;;5080976;28;20263;-71
2023/05/31 00:55:05;;;;;;;0.00;0.00;;;;;;;;;;5065813;28;20288;-71
2023/05/31 00:57:31;;;;;;;0.10;0.10;;;;;;;;;;5071014;28;20255;-71
2023/05/31 00:59:58;;;;;;;0.10;0.10;;;;;;;;;;5065697;28;20422;-71
2023/05/31 01:02:24;;;;;;;0.10;0.10;;;;;;;;;;5070853;28;20316;-71
2023/05/31 01:04:51;;;;;;;0.10;0.10;;;;;;;;;;5065662;28;20242;-71
2023/05/31 01:07:19;;;;;;;0.10;0.10;;;;;;;;;;5070789;28;20475;-71
2023/05/31 01:09:45;;;;;;;0.10;0.10;;;;;;;;;;5065207;28;20212;-71
2023/05/31 01:12:16;;;;;;;0.10;0.10;;;;;;;;;;5070741;28;20262;-71
2023/05/31 01:14:47;;;;;;;0.10;0.10;;;;;;;;;;5065280;28;20203;-71
2023/05/31 01:17:22;;;;;;;0.03;0.03;;;;;;;;;;5070684;28;20235;-71
2023/05/31 01:19:52;;;;;;;0.10;0.10;;;;;;;;;;5065414;28;20227;-71
2023/05/31 01:22:27;;;;;;;0.10;0.10;;;;;;;;;;5070488;28;20307;-71
2023/05/31 01:25:01;;;;;;;0.10;0.10;;;;;;;;;;5065082;28;20203;-71
2023/05/31 01:27:29;;;;;;;0.10;0.10;;;;;;;;;;5070359;28;20247;-71
2023/05/31 01:29:56;;;;;;;0.10;0.10;;;;;;;;;;5064907;28;20284;-71
2023/05/31 01:32:23;;;;;;;1.10;0.93;;;;;;;;;;5070256;28;20303;-71
2023/05/31 01:34:50;;;;;;;0.10;0.10;;;;;;;;;;5064560;28;20258;-71
2023/05/31 01:37:16;;;;;;;0.10;0.10;;;;;;;;;;5070173;28;20235;-71
2023/05/31 01:39:42;;;;;;;0.10;0.10;;;;;;;;;;5065055;28;20204;-71
2023/05/31 01:42:10;;;;;;;0.10;0.10;;;;;;;;;;5070025;28;20503;-71
2023/05/31 01:44:40;;;;;;;0.10;0.10;;;;;;;;;;5064683;28;20271;-71
2023/05/31 01:47:07;;;;;;;0.10;0.10;;;;;;;;;;5069982;28;20585;-72
2023/05/31 01:49:34;;;;;;;0.10;0.10;;;;;;;;;;5064722;28;20280;-71
2023/05/31 01:52:01;;;;;;;0.10;0.10;;;;;;;;;;5069995;28;20262;-68
2023/05/31 01:54:27;;;;;;;0.10;0.10;;;;;;;;;;5065237;28;20242;-68
2023/05/31 01:56:53;;;;;;;0.10;0.10;;;;;;;;;;5067891;28;20448;-68
2023/05/31 01:59:20;;;;;;;0.00;0.00;;;;;;;;;;5066393;28;20405;-68
2023/05/31 02:01:48;;;;;;;0.10;0.10;;;;;;;;;;5067043;28;20269;-68
2023/05/31 02:04:17;;;;;;;0.00;0.00;;;;;;;;;;5067024;28;20300;-68
2023/05/31 02:06:44;;;;;;;0.10;0.10;;;;;;;;;;5066433;28;20517;-68
2023/05/31 02:09:10;;;;;;;0.10;0.10;;;;;;;;;;5067476;28;20278;-68
2023/05/31 02:11:36;;;;;;;0.10;0.10;;;;;;;;;;5065605;28;20243;-68
2023/05/31 02:14:03;;;;;;;0.10;0.10;;;;;;;;;;5068244;28;20456;-68
2023/05/31 02:16:29;;;;;;;0.10;0.10;;;;;;;;;;5064326;28;20258;-68
2023/05/31 02:18:58;;;;;;;0.40;0.40;;;;;;;;;;5068813;28;20214;-68
2023/05/31 02:21:24;;;;;;;0.10;0.10;;;;;;;;;;5063811;28;20239;-68
2023/05/31 02:23:51;;;;;;;0.10;0.10;;;;;;;;;;5069669;28;20239;-68
2023/05/31 02:26:17;;;;;;;0.10;0.10;;;;;;;;;;5062758;28;20254;-68
2023/05/31 02:28:44;;;;;;;0.10;0.10;;;;;;;;;;5070291;28;20282;-67
2023/05/31 02:31:10;;;;;;;0.10;0.10;;;;;;;;;;5061647;28;20243;-67
2023/05/31 02:33:36;;;;;;;0.10;0.10;;;;;;;;;;5071018;28;20273;-67
2023/05/31 02:36:05;;;;;;;0.10;0.10;;;;;;;;;;5060602;28;20253;-67
2023/05/31 02:38:31;;;;;;;0.10;0.10;;;;;;;;;;5072116;28;20367;-68
2023/05/31 02:40:59;;;;;;;0.10;0.10;;;;;;;;;;5059889;28;20266;-68
2023/05/31 02:43:25;;;;;;;0.10;0.10;;;;;;;;;;5072365;28;20204;-68
2023/05/31 02:45:52;;;;;;;0.10;0.10;;;;;;;;;;5058415;28;20326;-67
2023/05/31 02:48:18;;;;;;;0.10;0.10;;;;;;;;;;5073584;28;20274;-67
2023/05/31 02:50:44;;;;;;;0.05;0.05;;;;;;;;;;5058243;28;20505;-68
2023/05/31 02:53:12;;;;;;;0.00;0.00;;;;;;;;;;5074131;28;20248;-67
2023/05/31 02:55:39;;;;;;;0.32;0.32;;;;;;;;;;5057357;28;20538;-68
2023/05/31 02:58:06;;;;;;;0.10;0.10;;;;;;;;;;5074757;28;20203;-67
2023/05/31 03:00:32;;;;;;;0.10;0.10;;;;;;;;;;5056631;28;20235;-68
2023/05/31 03:02:59;;;;;;;0.10;0.10;;;;;;;;;;5075935;28;20226;-67
2023/05/31 03:05:26;;;;;;;0.10;0.10;;;;;;;;;;5055715;28;20455;-68
2023/05/31 03:07:52;;;;;;;0.10;0.10;;;;;;;;;;5076397;28;20240;-68
2023/05/31 03:10:20;;;;;;;0.35;0.35;;;;;;;;;;5054553;28;20275;-68
2023/05/31 03:12:46;;;;;;;0.10;0.10;;;;;;;;;;5077240;28;20226;-67
2023/05/31 03:15:13;;;;;;;0.30;0.30;;;;;;;;;;5053934;28;20527;-67
2023/05/31 03:17:39;;;;;;;0.10;0.10;;;;;;;;;;5078253;28;20413;-67
2023/05/31 03:20:08;;;;;;;0.00;0.00;;;;;;;;;;5063256;28;20261;-67
2023/05/31 03:22:34;;;;;;;0.10;0.10;;;;;;;;;;5051880;28;20234;-67
2023/05/31 03:25:01;;;;;;;0.03;0.03;;;;;;;;;;5063182;28;20274;-68
2023/05/31 03:27:29;;;;;;;0.10;0.10;;;;;;;;;;5068523;28;20238;-67
2023/05/31 03:29:56;;;;;;;0.10;0.10;;;;;;;;;;5063033;28;20406;-67
2023/05/31 03:32:22;;;;;;;0.10;0.10;;;;;;;;;;5068572;28;20239;-67
2023/05/31 03:34:49;;;;;;;0.10;0.10;;;;;;;;;;5063302;28;20241;-67
2023/05/31 03:37:15;;;;;;;0.00;0.00;;;;;;;;;;5068399;28;20302;-67
2023/05/31 03:39:41;;;;;;;0.10;0.10;;;;;;;;;;5063072;28;20231;-68
2023/05/31 03:42:08;;;;;;;0.10;0.10;;;;;;;;;;5068452;28;20253;-68
2023/05/31 03:44:36;;;;;;;0.10;0.10;;;;;;;;;;5062974;28;20210;-67
2023/05/31 03:47:02;;;;;;;0.10;0.10;;;;;;;;;;5067650;28;20504;-67
2023/05/31 03:49:28;;;;;;;0.10;0.10;;;;;;;;;;5063832;28;20275;-67
2023/05/31 03:51:55;;;;;;;0.10;0.10;;;;;;;;;;5066595;28;20470;-67
2023/05/31 03:54:21;;;;;;;0.10;0.10;;;;;;;;;;5064477;28;20245;-67
2023/05/31 03:56:48;;;;;;;0.10;0.10;;;;;;;;;;5065560;28;20551;-67
2023/05/31 03:59:14;;;;;;;0.10;0.10;;;;;;;;;;5069204;28;20603;-67
2023/05/31 04:01:42;;;;;;;0.10;0.10;;;;;;;;;;5068146;28;20288;-67
2023/05/31 04:04:08;;;;;;;0.10;0.10;;;;;;;;;;5069599;28;20210;-68
2023/05/31 04:06:35;;;;;;;0.10;0.10;;;;;;;;;;5067106;28;20248;-67
2023/05/31 04:09:02;;;;;;;0.10;0.10;;;;;;;;;;5071162;28;20213;-67
2023/05/31 04:11:28;;;;;;;0.10;0.10;;;;;;;;;;5066707;28;20239;-67
2023/05/31 04:13:55;;;;;;;0.10;0.10;;;;;;;;;;5071262;28;20279;-67
2023/05/31 04:16:21;;;;;;;0.10;0.10;;;;;;;;;;5065493;28;20302;-67
2023/05/31 04:18:49;;;;;;;0.10;0.10;;;;;;;;;;5072521;28;20468;-67
2023/05/31 04:21:15;;;;;;;0.10;0.10;;;;;;;;;;5064693;28;20248;-67
2023/05/31 04:23:42;;;;;;;0.10;0.10;;;;;;;;;;5072815;28;20207;-67
2023/05/31 04:26:08;;;;;;;0.10;0.10;;;;;;;;;;5063589;28;20237;-67
2023/05/31 04:28:35;;;;;;;0.00;0.00;;;;;;;;;;5073633;28;20229;-67
2023/05/31 04:31:01;;;;;;;0.10;0.10;;;;;;;;;;5062826;28;20246;-67
2023/05/31 04:33:29;;;;;;;0.10;0.10;;;;;;;;;;5074811;28;20379;-68
2023/05/31 04:35:57;;;;;;;0.10;0.10;;;;;;;;;;5061651;28;20246;-67
2023/05/31 04:38:27;;;;;;;0.10;0.10;;;;;;;;;;5075074;28;20294;-67
2023/05/31 04:40:54;;;;;;;0.10;0.10;;;;;;;;;;5061378;28;20238;-67
2023/05/31 04:43:20;;;;;;;0.10;0.10;;;;;;;;;;5075353;28;20207;-67
2023/05/31 04:45:47;;;;;;;0.10;0.10;;;;;;;;;;5060570;28;20239;-67
2023/05/31 04:48:15;;;;;;;0.10;0.10;;;;;;;;;;5075985;28;20191;-67
2023/05/31 04:50:41;;;;;;;0.10;0.10;;;;;;;;;;5059625;28;20364;-67
2023/05/31 04:53:09;;;;;;;0.10;0.10;;;;;;;;;;5077108;28;20390;-67
2023/05/31 04:55:35;;;;;;;0.10;0.10;;;;;;;;;;5059034;28;20250;-67
2023/05/31 04:58:01;;;;;;;0.10;0.10;;;;;;;;;;5077233;28;20290;-67
2023/05/31 05:00:28;;;;;;;0.10;0.10;;;;;;;;;;5058024;28;20250;-67
2023/05/31 05:02:54;;;;;;;0.10;0.10;;;;;;;;;;5078352;28;20204;-67
2023/05/31 05:05:21;;;;;;;0.10;0.10;;;;;;;;;;5057218;28;20206;-67
2023/05/31 05:07:47;;;;;;;0.03;0.03;;;;;;;;;;5079416;28;20224;-66
2023/05/31 05:10:15;;;;;;;0.10;0.10;;;;;;;;;;5055136;28;20235;-67
2023/05/31 05:12:41;;;;;;;0.10;0.10;;;;;;;;;;5080205;28;20420;-67
2023/05/31 05:15:09;;;;;;;0.10;0.10;;;;;;;;;;5065287;28;20301;-67
2023/05/31 05:17:36;;;;;;;0.10;0.10;;;;;;;;;;5054542;28;20235;-67
2023/05/31 05:20:03;;;;;;;0.10;0.10;;;;;;;;;;5065185;28;20211;-67
2023/05/31 05:22:30;;;;;;;0.10;0.10;;;;;;;;;;5070435;28;20236;-67
2023/05/31 05:24:56;;;;;;;0.10;0.10;;;;;;;;;;5064927;28;20203;-67
2023/05/31 05:27:24;;;;;;;0.10;0.10;;;;;;;;;;5070418;28;20237;-67
2023/05/31 05:29:50;;;;;;;0.00;0.00;;;;;;;;;;5064838;28;20219;-67
2023/05/31 05:32:17;;;;;;;0.00;0.00;;;;;;;;;;5070328;28;20529;-67
2023/05/31 05:34:43;;;;;;;0.10;0.10;;;;;;;;;;5065189;28;20403;-68
2023/05/31 05:37:09;;;;;;;0.10;0.10;;;;;;;;;;5070121;28;20289;-67
2023/05/31 05:39:36;;;;;;;0.10;0.10;;;;;;;;;;5064723;28;20211;-67
2023/05/31 05:42:02;;;;;;;0.10;0.10;;;;;;;;;;5069267;28;20315;-67
2023/05/31 05:44:30;;;;;;;0.10;0.10;;;;;;;;;;5065619;28;20532;-67
2023/05/31 05:46:57;;;;;;;0.00;0.00;;;;;;;;;;5068343;28;20298;-67
2023/05/31 05:49:24;;;;;;;0.00;0.00;;;;;;;;;;5066104;28;20212;-67
2023/05/31 05:51:50;;;;;;;0.10;0.10;;;;;;;;;;5067545;28;20248;-67
2023/05/31 05:54:16;;;;;;;0.10;0.10;;;;;;;;;;5067068;28;20232;-67
2023/05/31 05:56:43;;;;;;;0.07;0.07;;;;;;;;;;5066647;28;20485;-67
2023/05/31 05:59:09;;;;;;;0.10;0.10;;;;;;;;;;5067793;28;20257;-67
2023/05/31 06:01:37;;;;;;;0.00;0.00;;;;;;;;;;5065018;28;20276;-67
2023/05/31 06:04:03;;;;;;;0.10;0.10;;;;;;;;;;5068666;28;20222;-68
2023/05/31 06:06:31;;;;;;;0.03;0.03;;;;;;;;;;5064719;28;20302;-68
2023/05/31 06:08:58;;;;;;;0.10;0.10;;;;;;;;;;5068799;28;20236;-68
2023/05/31 06:11:25;;;;;;;0.10;0.10;;;;;;;;;;5064113;28;20251;-68
2023/05/31 06:13:56;;;;;;;0.00;0.00;;;;;;;;;;5069328;28;20224;-68
2023/05/31 06:16:22;;;;;;;0.00;0.00;;;;;;;;;;5063525;28;20433;-68
2023/05/31 06:18:51;;;;;;;0.10;0.10;;;;;;;;;;5069971;28;20520;-67
2023/05/31 06:21:17;;;;;;;0.10;0.10;;;;;;;;;;5062624;28;20267;-68
2023/05/31 06:23:43;;;;;;;0.00;0.00;;;;;;;;;;5070311;28;20274;-68
2023/05/31 06:26:10;;;;;;;0.10;0.10;;;;;;;;;;5061752;28;20305;-68
2023/05/31 06:28:40;;;;;;;0.10;0.10;;;;;;;;;;5071009;28;20230;-68
2023/05/31 06:31:08;;;;;;;0.00;0.00;;;;;;;;;;5061913;28;20653;-67
2023/05/31 06:33:34;;;;;;;0.10;0.10;;;;;;;;;;5071368;28;20210;-68
2023/05/31 06:36:02;;;;;;;0.10;0.10;;;;;;;;;;5060700;28;20494;-68
2023/05/31 06:38:29;;;;;;;0.80;0.80;;;;;;;;;;5072587;28;20398;-68
2023/05/31 06:40:55;;;;;;;0.00;0.00;;;;;;;;;;5059927;28;20239;-68
2023/05/31 06:43:22;;;;;;;0.10;0.10;;;;;;;;;;5073293;28;20433;-68
2023/05/31 06:45:48;;;;;;;0.00;0.00;;;;;;;;;;5058687;28;20317;-68
2023/05/31 06:48:14;;;;;;;1.85;1.85;;;;;;;;;;5074070;28;20208;-68
2023/05/31 06:50:41;;;;;;;0.28;0.28;;;;;;;;;;5057935;28;20262;-68
2023/05/31 06:53:17;;;;;;;0.57;0.57;;;;;;;;;;5075182;28;20245;-70
2023/05/31 06:55:43;;;;;;;0.00;0.00;;;;;;;;;;5058327;28;20605;-70
2023/05/31 06:58:10;;;;;;;0.10;0.10;;;;;;;;;;5074345;28;20232;-67
2023/05/31 07:00:36;;;;;;;0.00;0.00;;;;;;;;;;5056842;28;20260;-67
2023/05/31 07:03:03;;;;;;;0.05;0.05;;;;;;;;;;5075455;28;20517;-67
2023/05/31 07:05:30;;;;;;;0.03;0.03;;;;;;;;;;5056199;28;20284;-67
2023/05/31 07:07:56;;;;;;;0.10;0.10;;;;;;;;;;5076152;28;20203;-69
2023/05/31 07:10:24;;;;;;;0.10;0.10;;;;;;;;;;5054976;28;20209;-68
2023/05/31 07:12:51;;;;;;;0.10;0.10;;;;;;;;;;5077304;28;20227;-69
2023/05/31 07:15:18;;;;;;;0.10;0.10;;;;;;;;;;5054370;28;20212;-67
2023/05/31 07:17:44;;;;;;;0.10;0.10;;;;;;;;;;5077629;28;20527;-68
2023/05/31 07:20:11;;;;;;;0.10;0.10;;;;;;;;;;5053589;28;20206;-68
2023/05/31 07:22:38;;;;;;;0.10;0.10;;;;;;;;;;5078553;28;20200;-67
2023/05/31 07:25:04;;;;;;;0.10;0.10;;;;;;;;;;5063544;28;20212;-70
2023/05/31 07:27:32;;;;;;;0.10;0.10;;;;;;;;;;5068574;28;20473;-68
2023/05/31 07:29:59;;;;;;;0.10;0.10;;;;;;;;;;5063294;28;20219;-67
2023/05/31 07:32:25;;;;;;;0.03;0.03;;;;;;;;;;5069797;28;20242;-67
2023/05/31 07:34:52;;;;;;;0.05;0.05;;;;;;;;;;5067235;28;20265;-72
2023/05/31 07:37:18;;;;;;;0.10;0.10;;;;;;;;;;5072413;28;20253;-69
2023/05/31 07:39:45;;;;;;;0.00;0.00;;;;;;;;;;5066976;28;20272;-71
2023/05/31 07:42:12;;;;;;;0.05;0.05;;;;;;;;;;5072489;28;20304;-69
2023/05/31 07:44:40;;;;;;;0.10;0.10;;;;;;;;;;5067290;28;20205;-72
2023/05/31 07:47:06;;;;;;;0.10;0.10;;;;;;;;;;5072168;28;20485;-68
2023/05/31 07:49:33;;;;;;;0.03;0.03;;;;;;;;;;5067060;28;20204;-67
2023/05/31 07:51:59;;;;;;;0.05;0.05;;;;;;;;;;5071010;28;20443;-66
2023/05/31 07:54:26;;;;;;;0.00;0.00;;;;;;;;;;5067885;28;20211;-67
2023/05/31 07:56:52;;;;;;;0.00;0.00;;;;;;;;;;5070094;28;20482;-67
2023/05/31 07:59:19;;;;;;;0.10;0.10;;;;;;;;;;5068894;28;20224;-67
2023/05/31 08:01:47;;;;;;;0.10;0.10;;;;;;;;;;5069266;28;20287;-68
2023/05/31 08:04:13;;;;;;;0.10;0.10;;;;;;;;;;5069636;28;20417;-67
2023/05/31 08:06:41;;;;;;;0.00;0.00;;;;;;;;;;5068327;28;20479;-66
2023/05/31 08:09:08;;;;;;;0.08;0.08;;;;;;;;;;5069761;28;20283;-67
2023/05/31 08:11:35;;;;;;;0.10;0.10;;;;;;;;;;5067550;28;20245;-66
2023/05/31 08:14:02;;;;;;;0.05;0.05;;;;;;;;;;5070530;28;20211;-67
2023/05/31 08:16:28;;;;;;;0.03;0.03;;;;;;;;;;5066705;28;20593;-66
2023/05/31 08:18:56;;;;;;;0.63;0.63;;;;;;;;;;5071533;28;20596;-66
2023/05/31 08:21:23;;;;;;;0.10;0.10;;;;;;;;;;5065884;28;20446;-67
2023/05/31 08:23:49;;;;;;;0.10;0.10;;;;;;;;;;5071992;28;20207;-67
2023/05/31 08:26:16;;;;;;;0.68;0.68;;;;;;;;;;5064782;28;20664;-66
2023/05/31 08:28:42;;;;;;;0.00;0.00;;;;;;;;;;5072620;28;20247;-67
2023/05/31 08:31:09;;;;;;;0.00;0.00;;;;;;;;;;5063984;28;20240;-68
2023/05/31 08:33:36;;;;;;;0.10;0.10;;;;;;;;;;5073927;28;20212;-67
2023/05/31 08:36:04;;;;;;;0.10;0.10;;;;;;;;;;5062902;28;20268;-67
2023/05/31 08:38:30;;;;;;;0.00;0.00;;;;;;;;;;5074559;28;20456;-67
2023/05/31 08:40:58;;;;;;;0.00;0.00;;;;;;;;;;5062064;28;20556;-67
2023/05/31 08:43:30;;;;;;;0.00;0.00;;;;;;;;;;5074408;28;20229;-66
2023/05/31 08:45:57;;;;;;;0.00;0.00;;;;;;;;;;5066141;28;20251;-67
2023/05/31 08:48:27;;;;;;;0.00;0.00;;;;;;;;;;5075317;28;20209;-67
2023/05/31 08:50:53;;;;;;;0.10;0.10;;;;;;;;;;5061414;28;20240;-67
2023/05/31 08:53:21;;;;;;;0.00;0.00;;;;;;;;;;5075557;28;20515;-67
2023/05/31 08:55:49;;;;;;;0.00;0.00;;;;;;;;;;5060614;28;20480;-67
2023/05/31 08:58:15;;;;;;;0.00;0.00;;;;;;;;;;5075970;28;20419;-67
2023/05/31 09:00:42;;;;;;;0.00;0.00;;;;;;;;;;5059824;28;20513;-67
2023/05/31 09:03:09;;;;;;;0.08;0.08;;;;;;;;;;5076772;28;20219;-67
2023/05/31 09:05:36;;;;;;;0.00;0.00;;;;;;;;;;5058886;28;20251;-67
2023/05/31 09:08:02;;;;;;;0.03;0.03;;;;;;;;;;5077462;28;20262;-67
2023/05/31 09:10:30;;;;;;;0.00;0.00;;;;;;;;;;5057729;28;20277;-67
2023/05/31 09:12:59;;;;;;;0.00;0.00;;;;;;;;;;5080438;28;20207;-67
2023/05/31 09:15:27;;;;;;;0.00;0.00;;;;;;;;;;5055642;28;20207;-67
2023/05/31 09:17:56;;;;;;;0.00;0.00;;;;;;;;;;5080384;28;20551;-67
2023/05/31 09:20:31;;;;;;;0.10;0.10;;;;;;;;;;5059911;28;20206;-72
2023/05/31 09:22:57;;;;;;;0.10;0.10;;;;;;;;;;5079296;28;20224;-73
2023/05/31 09:25:24;;;;;;;0.10;0.10;;;;;;;;;;5058367;28;20305;-72
2023/05/31 09:27:51;;;;;;;0.10;0.10;;;;;;;;;;5078826;28;20196;-73
2023/05/31 09:30:18;;;;;;;0.08;0.08;;;;;;;;;;5055992;28;20275;-73
2023/05/31 09:32:52;;;;;;;0.00;0.00;;;;;;;;;;5079485;28;20195;-73
2023/05/31 09:35:20;;;;;;;0.30;0.30;;;;;;;;;;5056093;28;20238;-73
2023/05/31 09:37:48;;;;;;;0.10;0.10;;;;;;;;;;5078435;28;20266;-73
2023/05/31 09:40:15;;;;;;;0.00;0.00;;;;;;;;;;5055435;28;20210;-73
2023/05/31 09:42:48;;;;;;;0.00;0.00;;;;;;;;;;5079208;28;20192;-73
2023/05/31 09:45:16;;;;;;;0.00;0.00;;;;;;;;;;5055470;28;20426;-72
2023/05/31 09:47:42;;;;;;;0.10;0.10;;;;;;;;;;5079353;28;20264;-73
2023/05/31 09:50:09;;;;;;;0.00;0.00;;;;;;;;;;5056301;28;20426;-73
2023/05/31 09:52:37;;;;;;;0.00;0.00;;;;;;;;;;5080055;28;20216;-73
2023/05/31 09:55:05;;;;;;;0.00;0.00;;;;;;;;;;5064417;28;20531;-73
2023/05/31 09:57:40;;;;;;;0.00;0.00;;;;;;;;;;5069834;28;20390;-73
2023/05/31 10:00:12;;;;;;;0.65;0.65;;;;;;;;;;5064311;28;20224;-73
2023/05/31 10:02:42;;;;;;;0.00;0.00;;;;;;;;;;5053121;28;20214;-73
2023/05/31 10:05:08;;;;;;;0.00;0.00;;;;;;;;;;5057065;28;20417;-72
2023/05/31 10:07:35;;;;;;;0.00;0.00;;;;;;;;;;5079338;28;20243;-73
2023/05/31 10:10:01;;;;;;;0.00;0.00;;;;;;;;;;5064424;28;20271;-73
2023/05/31 10:12:28;;;;;;;0.00;0.00;;;;;;;;;;5069535;28;20306;-73
2023/05/31 10:14:56;;;;;;;0.00;0.00;;;;;;;;;;5064245;28;20212;-73
2023/05/31 10:17:24;;;;;;;0.00;0.00;;;;;;;;;;5069402;28;20250;-72
2023/05/31 10:19:55;;;;;;;0.00;0.00;;;;;;;;;;5063833;28;20265;-73
2023/05/31 10:22:22;;;;;;;0.00;0.00;;;;;;;;;;5069315;28;20250;-73
2023/05/31 10:24:51;;;;;;;0.00;0.00;;;;;;;;;;5063732;28;20204;-72
2023/05/31 10:27:21;;;;;;;0.10;0.10;;;;;;;;;;5069197;28;20486;-73
2023/05/31 10:29:50;;;;;;;0.00;0.00;;;;;;;;;;5063605;28;20207;-73
2023/05/31 10:32:19;;;;;;;0.00;0.00;;;;;;;;;;5069148;28;20250;-72
2023/05/31 10:34:47;;;;;;;0.00;0.00;;;;;;;;;;5063770;28;20189;-71
2023/05/31 10:37:15;;;;;;;0.00;0.00;;;;;;;;;;5069121;28;20439;-73
2023/05/31 10:39:45;;;;;;;0.00;0.00;;;;;;;;;;5063909;28;20470;-73
2023/05/31 10:42:15;;;;;;;0.00;0.00;;;;;;;;;;5068886;28;20302;-74
2023/05/31 10:44:46;;;;;;;0.00;0.00;;;;;;;;;;5064133;28;20227;-73
2023/05/31 10:47:25;;;;;;;0.00;0.00;;;;;;;;;;5070772;28;20266;-73
2023/05/31 10:49:53;;;;;;;0.00;0.00;;;;;;;;;;5067197;28;20216;-72
2023/05/31 10:52:21;;;;;;;0.00;0.00;;;;;;;;;;5069283;28;20241;-73
2023/05/31 10:54:48;;;;;;;0.00;0.00;;;;;;;;;;5063456;28;20227;-73
2023/05/31 10:57:16;;;;;;;0.10;0.10;;;;;;;;;;5068883;28;20296;-73
2023/05/31 10:59:43;;;;;;;0.00;0.00;;;;;;;;;;5063491;28;20255;-73
2023/05/31 11:02:10;;;;;;;0.10;0.10;;;;;;;;;;5068776;28;20251;-74
2023/05/31 11:04:36;;;;;;;0.10;0.10;;;;;;;;;;5063615;28;20211;-74
2023/05/31 11:07:12;;;;;;;0.00;0.00;;;;;;;;;;5067322;28;20258;-73
2023/05/31 11:09:40;;;;;;;44.72;28.13;;;;;;;;;;5063251;28;20204;-73
2023/05/31 11:12:07;;;;;;;0.00;0.00;;;;;;;;;;5068521;28;20302;-74
2023/05/31 11:14:33;;;;;;;0.20;0.20;;;;;;;;;;5063274;28;20242;-73
2023/05/31 11:17:15;;;;;;;0.00;0.00;;;;;;;;;;5067516;28;20261;-73
2023/05/31 11:19:43;;;;;;;0.00;0.00;;;;;;;;;;5063088;28;20224;-73
2023/05/31 11:22:10;;;;;;;0.10;0.10;;;;;;;;;;5068298;28;20590;-74
2023/05/31 11:24:37;;;;;;;0.00;0.00;;;;;;;;;;5063418;28;20211;-74
2023/05/31 11:27:13;;;;;;;0.00;0.00;;;;;;;;;;5069508;28;20238;-73
2023/05/31 11:29:55;;;;;;;0.00;0.00;;;;;;;;;;5063023;28;20511;-74
2023/05/31 11:32:22;;;;;;;0.00;0.00;;;;;;;;;;5066937;28;20285;-74
2023/05/31 11:34:50;;;;;;;0.00;0.00;;;;;;;;;;5063240;28;20204;-74
2023/05/31 11:37:17;;;;;;;0.00;0.00;;;;;;;;;;5068496;28;20265;-74
2023/05/31 11:39:44;;;;;;;0.00;0.00;;;;;;;;;;5063302;28;20308;-75
2023/05/31 11:42:11;;;;;;;0.00;0.00;;;;;;;;;;5068414;28;20323;-76
2023/05/31 11:44:43;;;;;;;0.00;0.00;;;;;;;;;;5062886;28;20279;-75
2023/05/31 11:47:13;;;;;;;0.10;0.10;;;;;;;;;;5068184;28;20302;-76
2023/05/31 11:49:40;;;;;;;0.00;0.00;;;;;;;;;;5063089;28;20263;-74
2023/05/31 11:52:06;;;;;;;0.00;0.00;;;;;;;;;;5068011;28;20567;-74
2023/05/31 11:54:35;;;;;;;0.00;0.00;;;;;;;;;;5063310;28;20379;-75
2023/05/31 11:57:03;;;;;;;0.00;0.00;;;;;;;;;;5067294;28;20243;-75
2023/05/31 11:59:32;;;;;;;0.00;0.00;;;;;;;;;;5063057;28;20267;-74
2023/05/31 12:02:00;;;;;;;0.00;0.00;;;;;;;;;;5066598;28;20255;-74
2023/05/31 12:04:33;;;;;;;0.00;0.00;;;;;;;;;;5064038;28;20204;-75
2023/05/31 12:07:02;;;;;;;0.00;0.00;;;;;;;;;;5067310;28;20463;-75
2023/05/31 12:09:28;;;;;;;0.00;0.00;;;;;;;;;;5063437;28;20206;-74
2023/05/31 12:11:56;;;;;;;0.00;0.00;;;;;;;;;;5066566;28;20262;-75
2023/05/31 12:14:25;;;;;;;0.00;0.00;;;;;;;;;;5064555;28;20204;-74
2023/05/31 12:16:52;;;;;;;0.25;0.25;;;;;;;;;;5065968;28;20335;-75
2023/05/31 12:19:20;;;;;;;0.00;0.00;;;;;;;;;;5067335;28;20228;-74
2023/05/31 12:21:47;;;;;;;0.00;0.00;;;;;;;;;;5068652;28;20273;-75
2023/05/31 12:24:14;;;;;;;0.00;0.00;;;;;;;;;;5069149;28;20204;-74
2023/05/31 12:26:43;;;;;;;0.00;0.00;;;;;;;;;;5068990;28;20478;-74
2023/05/31 12:29:10;;;;;;;0.00;0.00;;;;;;;;;;5071215;28;20208;-74
2023/05/31 12:31:42;;;;;;;0.00;0.00;;;;;;;;;;5068573;28;20302;-74
2023/05/31 12:34:09;;;;;;;0.03;0.03;;;;;;;;;;5070358;28;20197;-74
2023/05/31 12:36:41;;;;;;;0.00;0.00;;;;;;;;;;5067483;28;20457;-74
2023/05/31 12:39:08;;;;;;;0.00;0.00;;;;;;;;;;5069407;28;20491;-74
2023/05/31 12:41:37;;;;;;;0.00;0.00;;;;;;;;;;5067577;28;20235;-74
2023/05/31 12:44:04;;;;;;;0.00;0.00;;;;;;;;;;5070547;28;20222;-76
2023/05/31 12:46:37;;;;;;;0.00;0.00;;;;;;;;;;5066672;28;20247;-75
2023/05/31 12:49:10;;;;;;;0.00;0.00;;;;;;;;;;5069783;28;20259;-74
2023/05/31 12:51:37;;;;;;;0.00;0.00;;;;;;;;;;5067032;28;20306;-75
2023/05/31 12:54:10;;;;;;;0.00;0.00;;;;;;;;;;5069681;28;20274;-75
2023/05/31 12:56:36;;;;;;;0.00;0.00;;;;;;;;;;5066847;28;20310;-74
2023/05/31 12:59:03;;;;;;;0.00;0.00;;;;;;;;;;5069765;28;20306;-75
2023/05/31 13:01:29;;;;;;;0.00;0.00;;;;;;;;;;5066057;28;20239;-73
2023/05/31 13:03:56;;;;;;;0.00;0.00;;;;;;;;;;5070582;28;20205;-78
2023/05/31 13:06:25;;;;;;;0.00;0.00;;;;;;;;;;5064917;28;20302;-75
2023/05/31 13:08:51;;;;;;;0.00;0.00;;;;;;;;;;5070916;28;20271;-76
2023/05/31 13:11:19;;;;;;;0.00;0.00;;;;;;;;;;5064368;28;20305;-75
2023/05/31 13:13:45;;;;;;;0.00;0.00;;;;;;;;;;5071933;28;20208;-76
2023/05/31 13:16:12;;;;;;;0.00;0.00;;;;;;;;;;5063140;28;20246;-75
2023/05/31 13:18:38;;;;;;;0.00;0.00;;;;;;;;;;5072951;28;20211;-76
2023/05/31 13:21:04;;;;;;;0.00;0.00;;;;;;;;;;5062611;28;20493;-76
2023/05/31 13:23:31;;;;;;;0.00;0.00;;;;;;;;;;5073474;28;20242;-76
2023/05/31 13:25:57;;;;;;;0.00;0.00;;;;;;;;;;5061617;28;20499;-76
2023/05/31 13:28:25;;;;;;;0.00;0.00;;;;;;;;;;5074153;28;20207;-76
2023/05/31 13:30:52;;;;;;;0.00;0.00;;;;;;;;;;5059655;28;20239;-76
2023/05/31 13:33:18;;;;;;;0.00;0.00;;;;;;;;;;5075112;28;20396;-76
2023/05/31 13:35:44;;;;;;;0.10;0.10;;;;;;;;;;5059901;28;20250;-75
2023/05/31 13:38:11;;;;;;;0.00;0.00;;;;;;;;;;5075997;28;20388;-78
2023/05/31 13:40:40;;;;;;;0.00;0.00;;;;;;;;;;5058777;28;20492;-78
2023/05/31 13:43:06;;;;;;;0.00;0.00;;;;;;;;;;5076065;28;20196;-79
2023/05/31 13:45:34;;;;;;;0.00;0.00;;;;;;;;;;5057594;28;20268;-78
2023/05/31 13:48:00;;;;;;;0.00;0.00;;;;;;;;;;5077288;28;20231;-77
2023/05/31 13:50:27;;;;;;;0.00;0.00;;;;;;;;;;5057182;28;20267;-77
2023/05/31 13:52:53;;;;;;;0.10;0.10;;;;;;;;;;5077907;28;20259;-75
2023/05/31 13:55:20;;;;;;;0.00;0.00;;;;;;;;;;5055787;28;20243;-76
2023/05/31 13:57:47;;;;;;;0.00;0.00;;;;;;;;;;5078490;28;20196;-76
2023/05/31 14:00:13;;;;;;;0.00;0.00;;;;;;;;;;5055023;28;20231;-76
2023/05/31 14:02:41;;;;;;;0.00;0.00;;;;;;;;;;5079229;28;20224;-76
2023/05/31 14:05:08;;;;;;;0.00;0.00;;;;;;;;;;5063562;28;20523;-73
2023/05/31 14:07:35;;;;;;;0.00;0.00;;;;;;;;;;5079531;28;20220;-76
2023/05/31 14:10:01;;;;;;;0.00;0.00;;;;;;;;;;5064734;28;20361;-76
2023/05/31 14:12:27;;;;;;;0.00;0.00;;;;;;;;;;5069706;28;20315;-76
2023/05/31 14:14:54;;;;;;;0.00;0.00;;;;;;;;;;5064416;28;20211;-76
2023/05/31 14:17:20;;;;;;;0.00;0.00;;;;;;;;;;5069731;28;20239;-76
2023/05/31 14:19:52;;;;;;;0.00;0.00;;;;;;;;;;5064809;28;20228;-76
2023/05/31 14:22:18;;;;;;;0.00;0.00;;;;;;;;;;5069547;28;20323;-77
2023/05/31 14:24:45;;;;;;;0.00;0.00;;;;;;;;;;5064405;28;20431;-76
2023/05/31 14:27:12;;;;;;;0.00;0.00;;;;;;;;;;5069409;28;20266;-77
2023/05/31 14:29:38;;;;;;;0.00;0.00;;;;;;;;;;5064249;28;20511;-77
2023/05/31 14:32:05;;;;;;;0.00;0.00;;;;;;;;;;5068833;28;20246;-77
2023/05/31 14:34:31;;;;;;;0.00;0.00;;;;;;;;;;5064113;28;20271;-77
2023/05/31 14:36:59;;;;;;;0.75;0.75;;;;;;;;;;5067836;28;20581;-76
2023/05/31 14:39:25;;;;;;;0.00;0.00;;;;;;;;;;5065179;28;20228;-76
2023/05/31 14:41:52;;;;;;;0.00;0.00;;;;;;;;;;5066826;28;20266;-75
2023/05/31 14:44:18;;;;;;;0.00;0.00;;;;;;;;;;5065927;28;20205;-76